Time;durP1;ratioP1;P1;durP2;ratioP2;P2;SDS_P1;SDS_P2;PMS_P1;PMS_P2;Temp;Humidity;BMP_temperature;BMP_pressure;BME280_temperature;BME280_humidity;BME280_pressure;Samples;Min_cycle;Max_cycle;Signal;HPM_P1;HPM_P2
2022/12/14 00:01:17;;;;;;;7.32;4.93;;;-0.50;99.90;;;;;;4915749;29;20084;-68
2022/12/14 00:03:43;;;;;;;4.18;3.20;;;-0.50;99.90;;;;;;4916536;29;20047;-68
2022/12/14 00:06:21;;;;;;;5.03;3.25;;;-0.50;99.90;;;;;;4917072;29;20445;-68
2022/12/14 00:08:49;;;;;;;3.22;2.17;;;-0.40;99.90;;;;;;4916655;29;20050;-68
2022/12/14 00:11:16;;;;;;;12.50;4.25;;;-0.40;99.90;;;;;;4916644;29;20508;-68
2022/12/14 00:13:43;;;;;;;5.97;3.17;;;-0.40;99.90;;;;;;4914861;29;20111;-68
2022/12/14 00:16:15;;;;;;;6.20;3.13;;;-0.50;99.90;;;;;;4915489;29;20507;-67
2022/12/14 00:18:41;;;;;;;8.85;2.65;;;-0.40;99.90;;;;;;4915410;29;20063;-68
2022/12/14 00:21:10;;;;;;;8.10;3.50;;;-0.40;99.90;;;;;;4899721;29;20070;-67
2022/12/14 00:23:39;;;;;;;4.88;3.10;;;-0.50;99.90;;;;;;4915127;29;20047;-67
2022/12/14 00:26:21;;;;;;;4.38;2.88;;;-0.40;99.90;;;;;;4916567;29;20396;-67
2022/12/14 00:28:49;;;;;;;2.55;2.20;;;-0.50;99.90;;;;;;4915109;29;20044;-67
2022/12/14 00:31:15;;;;;;;4.82;2.42;;;-0.50;99.90;;;;;;4915028;29;20035;-67
2022/12/14 00:33:41;;;;;;;6.25;2.55;;;-0.60;99.90;;;;;;4914405;29;20507;-68
2022/12/14 00:36:09;;;;;;;5.82;3.03;;;-0.60;99.90;;;;;;4916535;29;20055;-67
2022/12/14 00:38:35;;;;;;;7.70;3.85;;;-0.50;99.90;;;;;;4915079;29;20120;-68
2022/12/14 00:41:01;;;;;;;12.15;2.75;;;-0.50;99.90;;;;;;4915969;29;20122;-68
2022/12/14 00:43:27;;;;;;;4.95;3.00;;;-0.50;99.90;;;;;;4916090;29;20084;-68
2022/12/14 00:45:53;;;;;;;5.45;2.33;;;-0.50;99.90;;;;;;4916275;29;20400;-67
2022/12/14 00:48:21;;;;;;;5.05;2.42;;;-0.50;99.90;;;;;;4899119;29;20036;-68
2022/12/14 00:50:48;;;;;;;5.57;2.78;;;-0.60;99.90;;;;;;4915688;29;20408;-67
2022/12/14 00:53:15;;;;;;;4.43;1.73;;;-0.60;99.90;;;;;;4915206;29;20401;-68
2022/12/14 00:55:43;;;;;;;3.00;1.63;;;-0.60;99.90;;;;;;4910204;29;20038;-68
2022/12/14 00:58:12;;;;;;;4.93;3.13;;;-0.60;99.90;;;;;;4915017;29;20028;-68
2022/12/14 01:00:39;;;;;;;5.40;2.97;;;-0.60;99.90;;;;;;4898052;29;20032;-68
2022/12/14 01:03:05;;;;;;;8.23;2.53;;;-0.60;99.90;;;;;;4915859;29;20038;-68
2022/12/14 01:05:34;;;;;;;2.30;1.58;;;-0.60;99.90;;;;;;4915761;29;20031;-68
2022/12/14 01:07:59;;;;;;;6.63;2.53;;;-0.70;99.90;;;;;;4914885;29;20111;-68
2022/12/14 01:10:25;;;;;;;6.57;2.72;;;-0.60;99.90;;;;;;4915251;29;20120;-68
2022/12/14 01:12:51;;;;;;;3.75;2.95;;;-0.60;99.90;;;;;;4913959;29;20028;-68
2022/12/14 01:15:17;;;;;;;3.10;1.67;;;-0.60;99.90;;;;;;4915411;29;20399;-67
2022/12/14 01:17:43;;;;;;;3.85;2.35;;;-0.60;99.90;;;;;;4915860;29;20056;-68
2022/12/14 01:20:09;;;;;;;7.68;2.80;;;-0.50;99.90;;;;;;4915228;29;20032;-68
2022/12/14 01:22:36;;;;;;;3.30;2.17;;;-0.50;99.90;;;;;;4915461;29;20731;-68
2022/12/14 01:25:03;;;;;;;3.13;1.75;;;-0.50;99.90;;;;;;4915118;29;20043;-68
2022/12/14 01:27:29;;;;;;;2.75;1.88;;;-0.50;99.90;;;;;;4914737;29;20040;-68
2022/12/14 01:29:54;;;;;;;6.80;2.33;;;-0.60;99.90;;;;;;4914821;29;20071;-68
2022/12/14 01:32:20;;;;;;;3.28;2.05;;;-0.60;99.90;;;;;;4915279;29;20032;-68
2022/12/14 01:34:47;;;;;;;2.33;1.23;;;-0.50;99.90;;;;;;4915110;29;20040;-68
2022/12/14 01:37:13;;;;;;;4.20;2.28;;;-0.50;99.90;;;;;;4915577;29;20021;-68
2022/12/14 01:39:39;;;;;;;5.43;2.28;;;-0.60;99.90;;;;;;4914867;29;20036;-68
2022/12/14 01:42:12;;;;;;;2.65;1.73;;;-0.60;99.90;;;;;;4915119;29;20504;-68
2022/12/14 01:44:38;;;;;;;5.10;1.27;;;-0.60;99.90;;;;;;4913528;29;20487;-67
2022/12/14 01:47:38;;;;;;;2.50;1.25;;;-0.60;99.90;;;;;;4914345;29;20123;-67
2022/12/14 01:50:12;;;;;;;1.58;1.23;;;-0.60;99.90;;;;;;4913645;29;20595;-67
2022/12/14 01:52:43;;;;;;;1.83;1.35;;;-0.60;99.90;;;;;;4914896;29;20088;-67
2022/12/14 01:55:27;;;;;;;7.55;2.67;;;-0.60;99.90;;;;;;4913227;29;20103;-68
2022/12/14 01:58:00;;;;;;;3.05;1.80;;;-0.60;99.90;;;;;;4896228;29;20374;-67
2022/12/14 02:00:26;;;;;;;2.80;1.95;;;-0.50;99.90;;;;;;4911041;29;20032;-67
2022/12/14 02:03:19;;;;;;;3.28;1.90;;;-0.50;99.90;;;;;;4928930;29;20681;-67
2022/12/14 02:05:54;;;;;;;3.30;1.77;;;-0.40;99.90;;;;;;4909269;29;20129;-67
2022/12/14 02:08:22;;;;;;;2.60;1.75;;;-0.40;99.90;;;;;;4918946;29;20031;-67
2022/12/14 02:10:50;;;;;;;5.55;2.60;;;-0.40;99.90;;;;;;4913154;29;20035;-67
2022/12/14 02:13:33;;;;;;;2.70;1.65;;;-0.40;99.90;;;;;;4913130;29;20024;-67
2022/12/14 02:15:59;;;;;;;2.40;1.45;;;-0.30;99.90;;;;;;4913515;29;20484;-67
2022/12/14 02:18:30;;;;;;;3.50;2.10;;;-0.20;99.90;;;;;;4913080;29;20028;-68
2022/12/14 02:21:37;;;;;;;5.53;1.90;;;-0.20;99.90;;;;;;4907254;29;20107;-68
2022/12/14 02:24:27;;;;;;;3.53;2.17;;;-0.20;99.90;;;;;;4912527;29;20028;-67
2022/12/14 02:27:07;;;;;;;2.85;1.75;;;-0.20;99.90;;;;;;4914534;29;20059;-67
2022/12/14 02:30:01;;;;;;;2.22;1.63;;;-0.20;99.90;;;;;;4914113;29;20461;-67
2022/12/14 02:32:48;;;;;;;7.32;2.75;;;-0.20;99.90;;;;;;4914377;29;20107;-67
2022/12/14 02:35:38;;;;;;;5.10;2.42;;;-0.30;99.90;;;;;;4913820;29;20036;-67
2022/12/14 02:38:44;;;;;;;2.35;1.13;;;-0.30;99.90;;;;;;4914531;29;20036;-67
2022/12/14 02:41:39;;;;;;;8.80;2.42;;;-0.20;99.90;;;;;;4914298;29;20051;-67
2022/12/14 02:44:41;;;;;;;2.60;1.85;;;-0.20;99.90;;;;;;4914055;29;20036;-67
2022/12/14 02:47:25;;;;;;;3.22;1.88;;;-0.30;99.90;;;;;;4914377;29;20028;-67
2022/12/14 02:50:12;;;;;;;4.43;1.52;;;-0.30;99.90;;;;;;4912869;29;20052;-67
2022/12/14 02:52:40;;;;;;;4.45;1.85;;;-0.30;99.90;;;;;;4913929;29;20035;-67
2022/12/14 02:55:17;;;;;;;4.00;2.08;;;-0.30;99.90;;;;;;4912579;29;20028;-67
2022/12/14 02:58:12;;;;;;;3.50;2.13;;;-0.30;99.90;;;;;;4916899;29;20191;-67
2022/12/14 03:00:38;;;;;;;2.17;1.35;;;-0.20;99.90;;;;;;4917329;29;20044;-67
2022/12/14 03:03:05;;;;;;;4.85;2.53;;;-0.20;99.90;;;;;;4916621;29;20047;-67
2022/12/14 03:05:31;;;;;;;6.38;2.85;;;-0.20;99.90;;;;;;4917777;29;20032;-67
2022/12/14 03:08:07;;;;;;;4.32;2.92;;;-0.20;99.90;;;;;;4918186;29;20040;-67
2022/12/14 03:10:58;;;;;;;2.72;1.20;;;-0.20;99.90;;;;;;4915708;29;20403;-67
2022/12/14 03:13:52;;;;;;;5.55;1.92;;;-0.20;99.90;;;;;;4917344;29;20043;-67
2022/12/14 03:16:30;;;;;;;6.20;3.35;;;-0.20;99.90;;;;;;4913823;29;20032;-67
2022/12/14 03:19:41;;;;;;;2.58;1.48;;;-0.20;99.90;;;;;;4931331;29;20111;-67
2022/12/14 03:22:14;;;;;;;3.72;2.22;;;-0.20;99.90;;;;;;4917642;29;20040;-67
2022/12/14 03:24:48;;;;;;;2.97;2.10;;;-0.30;99.90;;;;;;4917362;29;20040;-67
2022/12/14 03:27:33;;;;;;;2.42;2.03;;;-0.30;99.90;;;;;;4916562;29;20047;-67
2022/12/14 03:30:14;;;;;;;3.47;2.35;;;-0.30;99.90;;;;;;4915491;29;20063;-67
2022/12/14 03:32:51;;;;;;;7.97;3.67;;;-0.30;99.90;;;;;;4945088;28;20036;-67
2022/12/14 03:35:30;;;;;;;2.60;1.85;;;-0.30;99.90;;;;;;4915886;29;20024;-67
2022/12/14 03:38:34;;;;;;;5.65;2.33;;;-0.30;99.90;;;;;;4913145;29;20041;-67
2022/12/14 03:41:27;;;;;;;4.82;2.67;;;-0.30;99.90;;;;;;4910502;29;20035;-67
2022/12/14 03:44:30;;;;;;;5.05;1.63;;;-0.30;99.90;;;;;;4916030;29;20063;-67
2022/12/14 03:47:42;;;;;;;5.22;1.98;;;-0.30;99.90;;;;;;4917388;29;20036;-67
2022/12/14 03:50:44;;;;;;;5.88;3.42;;;-0.20;99.90;;;;;;4915084;29;20067;-67
2022/12/14 03:53:31;;;;;;;3.85;1.85;;;-0.20;99.90;;;;;;4910354;29;20068;-66
2022/12/14 03:56:06;;;;;;;5.82;3.13;;;-0.20;99.90;;;;;;4910249;29;20028;-68
2022/12/14 03:58:50;;;;;;;3.08;2.00;;;-0.20;99.90;;;;;;4916730;29;20411;-67
2022/12/14 04:01:29;;;;;;;4.40;1.67;;;-0.10;99.90;;;;;;4916969;29;20051;-67
2022/12/14 04:04:13;;;;;;;6.07;2.95;;;-0.20;99.90;;;;;;4916610;29;20036;-67
2022/12/14 04:07:22;;;;;;;7.00;2.72;;;-0.20;99.90;;;;;;4917250;29;20500;-67
2022/12/14 04:10:00;;;;;;;6.00;1.98;;;-0.30;99.90;;;;;;4913653;29;20370;-67
2022/12/14 04:21:27;;;;;;;6.03;1.55;;;-0.50;99.90;;;;;;4916379;29;20028;-67
2022/12/14 04:27:18;;;;;;;5.97;1.95;;;-0.50;99.90;;;;;;4915763;29;20040;-67
2022/12/14 04:29:56;;;;;;;4.63;2.97;;;-0.50;99.90;;;;;;4914769;29;20651;-67
2022/12/14 04:32:47;;;;;;;5.20;2.38;;;-0.50;99.90;;;;;;4915282;29;20028;-67
2022/12/14 04:35:32;;;;;;;5.20;3.17;;;-0.50;99.90;;;;;;4890498;29;20032;-67
2022/12/14 04:38:15;;;;;;;4.32;2.97;;;-0.60;99.90;;;;;;4896335;29;20111;-66
2022/12/14 04:41:00;;;;;;;4.28;2.65;;;-0.60;99.90;;;;;;4914606;29;20044;-66
2022/12/14 04:43:34;;;;;;;3.65;2.28;;;-0.60;99.90;;;;;;4908474;29;20044;-67
2022/12/14 04:46:10;;;;;;;9.52;3.28;;;-0.60;99.90;;;;;;4914756;29;20036;-70
2022/12/14 04:49:01;;;;;;;6.15;3.05;;;-0.60;99.90;;;;;;4903135;29;20393;-67
2022/12/14 04:51:49;;;;;;;;;;;-0.60;99.90;;;;;;4886076;29;20036;-67
2022/12/14 04:54:26;;;;;;;3.75;2.40;;;-0.60;99.90;;;;;;4909935;29;19918;-67
2022/12/14 04:57:01;;;;;;;5.53;3.92;;;-0.60;99.90;;;;;;4915131;29;20095;-68
2022/12/14 04:59:27;;;;;;;4.47;3.15;;;-0.60;99.90;;;;;;4913868;29;20036;-67
2022/12/14 05:02:19;;;;;;;10.93;3.50;;;-0.60;99.90;;;;;;4914380;29;20380;-67
2022/12/14 05:05:29;;;;;;;6.03;2.97;;;-0.60;99.90;;;;;;4915136;29;20036;-67
2022/12/14 05:08:31;;;;;;;6.57;4.15;;;-0.60;99.90;;;;;;4895865;29;20049;-67
2022/12/14 05:11:23;;;;;;;;;;;-0.60;99.90;;;;;;4900381;29;20130;-68
2022/12/14 05:13:50;;;;;;;5.07;2.28;;;-0.60;99.90;;;;;;4911113;29;20140;-67
2022/12/14 05:16:22;;;;;;;7.47;4.50;;;-0.70;99.90;;;;;;4915459;29;20028;-68
2022/12/14 05:18:49;;;;;;;5.00;3.08;;;-0.70;99.90;;;;;;4902744;29;20087;-68
2022/12/14 05:24:02;;;;;;;6.38;3.60;;;-0.70;99.90;;;;;;4914205;29;20091;-68
2022/12/14 05:26:29;;;;;;;9.57;2.97;;;-0.70;99.90;;;;;;4915424;29;20499;-67
2022/12/14 05:28:55;;;;;;;8.15;3.92;;;-0.60;99.90;;;;;;4914862;29;20850;-67
2022/12/14 05:31:22;;;;;;;6.15;3.17;;;-0.60;99.90;;;;;;4913908;29;20436;-67
2022/12/14 05:33:48;;;;;;;7.05;3.80;;;-0.60;99.90;;;;;;4912758;29;20039;-67
2022/12/14 05:36:14;;;;;;;9.32;3.47;;;-0.60;99.90;;;;;;4915399;29;20032;-67
2022/12/14 05:38:40;;;;;;;8.80;3.17;;;-0.60;99.90;;;;;;4914945;29;20032;-67
2022/12/14 05:41:06;;;;;;;6.32;3.22;;;-0.60;99.90;;;;;;4914896;29;20031;-67
2022/12/14 05:43:31;;;;;;;8.77;5.13;;;-0.50;99.90;;;;;;4913315;29;20106;-67
2022/12/14 05:46:03;;;;;;;7.57;4.07;;;-0.40;99.90;;;;;;4898307;29;20059;-67
2022/12/14 05:48:30;;;;;;;9.55;3.90;;;-0.40;99.90;;;;;;4914868;29;20069;-67
2022/12/14 05:51:07;;;;;;;7.00;3.67;;;-0.40;99.90;;;;;;4914725;29;20032;-67
2022/12/14 05:53:35;;;;;;;6.15;3.00;;;-0.30;99.90;;;;;;4914699;29;20031;-68
2022/12/14 05:56:00;;;;;;;6.90;3.42;;;-0.30;99.90;;;;;;4913797;29;20036;-67
2022/12/14 05:58:26;;;;;;;8.30;3.38;;;-0.40;99.90;;;;;;4914302;29;20029;-68
2022/12/14 06:00:52;;;;;;;10.05;4.10;;;-0.40;99.90;;;;;;4915053;29;20425;-68
2022/12/14 06:03:17;;;;;;;5.03;3.03;;;-0.40;99.90;;;;;;4914422;29;20032;-68
2022/12/14 06:05:43;;;;;;;6.47;3.45;;;-0.50;99.90;;;;;;4914292;29;20055;-68
2022/12/14 06:08:09;;;;;;;10.43;4.95;;;-0.50;99.90;;;;;;4915041;29;20036;-68
2022/12/14 06:10:34;;;;;;;9.35;3.90;;;-0.60;99.90;;;;;;4910900;29;20025;-68
2022/12/14 06:13:00;;;;;;;4.72;2.22;;;-0.60;99.90;;;;;;4913119;29;20028;-67
2022/12/14 06:15:27;;;;;;;7.88;4.55;;;-0.70;99.90;;;;;;4937695;29;20448;-67
2022/12/14 06:17:52;;;;;;;14.70;4.55;;;-0.60;99.90;;;;;;4914054;29;20028;-68
2022/12/14 06:20:18;;;;;;;8.90;3.00;;;-0.70;99.90;;;;;;4913204;29;20095;-67
2022/12/14 06:22:44;;;;;;;5.07;3.15;;;-0.90;99.90;;;;;;4913307;29;20040;-68
2022/12/14 06:25:10;;;;;;;11.35;4.88;;;-0.80;99.90;;;;;;4913496;29;20137;-68
2022/12/14 06:27:35;;;;;;;6.78;3.75;;;-0.90;99.90;;;;;;4914792;29;20373;-67
2022/12/14 06:30:01;;;;;;;6.40;3.40;;;-1.00;99.90;;;;;;4912171;29;20051;-68
2022/12/14 06:32:26;;;;;;;9.45;4.35;;;-0.90;99.90;;;;;;4913568;29;20107;-67
2022/12/14 06:34:52;;;;;;;4.47;2.72;;;-1.00;99.90;;;;;;4913969;29;20035;-67
2022/12/14 06:37:18;;;;;;;6.93;2.50;;;-1.10;99.90;;;;;;4914341;29;20488;-67
2022/12/14 06:39:44;;;;;;;4.90;2.83;;;-1.30;99.90;;;;;;4913602;29;20118;-67
2022/12/14 06:42:10;;;;;;;5.28;3.22;;;-1.30;99.90;;;;;;4913843;29;20110;-67
2022/12/14 06:44:36;;;;;;;11.07;3.97;;;-1.30;99.90;;;;;;4912044;29;20440;-67
2022/12/14 06:47:02;;;;;;;5.70;3.47;;;-1.30;99.90;;;;;;4912591;29;20048;-67
2022/12/14 06:49:28;;;;;;;17.00;3.95;;;-1.20;99.90;;;;;;4918098;29;20036;-68
2022/12/14 06:51:54;;;;;;;6.57;2.85;;;-1.20;99.90;;;;;;4916469;29;20407;-68
2022/12/14 06:54:20;;;;;;;3.28;2.83;;;-1.10;99.90;;;;;;4923925;29;20028;-67
2022/12/14 06:56:46;;;;;;;5.60;3.78;;;-1.10;99.90;;;;;;4914334;29;20032;-69
2022/12/14 06:59:13;;;;;;;8.32;4.65;;;-1.10;99.90;;;;;;4913487;29;20028;-66
2022/12/14 07:01:39;;;;;;;12.50;3.63;;;-1.10;99.90;;;;;;4913613;29;20115;-67
2022/12/14 07:04:06;;;;;;;14.82;5.32;;;-1.00;99.90;;;;;;4930352;29;20032;-67
2022/12/14 07:06:39;;;;;;;8.48;3.80;;;-1.00;99.90;;;;;;4912647;29;20370;-68
2022/12/14 07:09:09;;;;;;;10.05;4.57;;;-0.90;99.90;;;;;;4929928;29;20044;-68
2022/12/14 07:11:35;;;;;;;11.32;3.47;;;-0.90;99.90;;;;;;4913630;29;20115;-68
2022/12/14 07:14:04;;;;;;;12.90;3.88;;;-1.00;99.90;;;;;;4913673;29;20104;-69
2022/12/14 07:16:33;;;;;;;10.95;6.53;;;-1.00;99.90;;;;;;4913140;29;20055;-69
2022/12/14 07:18:59;;;;;;;6.88;3.85;;;-1.00;99.90;;;;;;4912866;29;20155;-70
2022/12/14 07:21:25;;;;;;;9.40;5.10;;;-0.90;99.90;;;;;;4912566;29;20042;-69
2022/12/14 07:23:52;;;;;;;9.27;4.25;;;-0.90;99.90;;;;;;4926682;23;20135;-67
2022/12/14 07:26:26;;;;;;;11.40;4.68;;;-0.90;99.90;;;;;;4922210;29;20039;-67
2022/12/14 07:28:53;;;;;;;6.78;4.32;;;-0.90;99.90;;;;;;4923397;29;20047;-68
2022/12/14 07:31:25;;;;;;;9.45;4.13;;;-0.90;99.90;;;;;;4947452;29;20054;-68
2022/12/14 07:33:56;;;;;;;7.57;4.47;;;-0.80;99.90;;;;;;4905318;29;20028;-68
2022/12/14 07:36:24;;;;;;;9.75;4.95;;;-0.80;99.90;;;;;;4912769;29;20165;-68
2022/12/14 07:38:51;;;;;;;12.07;5.60;;;-0.80;99.90;;;;;;4904646;29;20403;-68
2022/12/14 07:41:22;;;;;;;10.35;5.07;;;-0.80;99.90;;;;;;4911174;29;20396;-69
2022/12/14 07:43:48;;;;;;;11.57;5.47;;;-0.80;99.90;;;;;;4906550;29;20064;-68
2022/12/14 07:46:18;;;;;;;12.63;5.10;;;-0.80;99.90;;;;;;4931794;29;20129;-70
2022/12/14 07:48:46;;;;;;;13.30;4.90;;;-0.80;99.90;;;;;;4909111;29;20643;-69
2022/12/14 07:51:15;;;;;;;8.90;4.15;;;-0.80;99.90;;;;;;4930940;29;20035;-69
2022/12/14 07:53:40;;;;;;;7.30;5.20;;;-0.70;99.90;;;;;;4926825;29;20119;-70
2022/12/14 07:56:14;;;;;;;8.13;4.63;;;-0.70;99.90;;;;;;4907874;29;20179;-71
2022/12/14 07:58:40;;;;;;;8.77;3.63;;;-0.70;99.90;;;;;;4925369;29;20036;-68
2022/12/14 08:01:19;;;;;;;7.40;5.03;;;-0.70;99.90;;;;;;4929785;29;20023;-69
2022/12/14 08:04:09;;;;;;;7.30;5.18;;;-0.70;99.90;;;;;;4908524;29;20028;-70
2022/12/14 08:06:37;;;;;;;8.77;4.57;;;-0.70;99.90;;;;;;4916220;29;20034;-71
2022/12/14 08:09:05;;;;;;;11.02;4.35;;;-0.80;99.90;;;;;;4920124;29;20031;-67
2022/12/14 08:11:31;;;;;;;8.38;5.18;;;-0.70;99.90;;;;;;4930006;29;20107;-71
2022/12/14 08:14:04;;;;;;;15.13;6.45;;;-0.80;99.90;;;;;;4906799;29;20484;-69
2022/12/14 08:16:31;;;;;;;7.38;4.57;;;-0.70;99.90;;;;;;4907842;29;20033;-70
2022/12/14 08:18:58;;;;;;;11.88;7.47;;;-0.80;99.90;;;;;;4923781;29;20031;-68
2022/12/14 08:21:25;;;;;;;10.23;5.85;;;-0.70;99.90;;;;;;4898122;29;20403;-70
2022/12/14 08:23:53;;;;;;;14.65;5.05;;;-0.80;99.90;;;;;;4895732;29;20103;-69
2022/12/14 08:26:20;;;;;;;5.60;3.95;;;-0.80;99.90;;;;;;4906933;29;20047;-69
2022/12/14 08:28:47;;;;;;;6.97;4.38;;;-0.80;99.90;;;;;;4906228;29;20103;-68
2022/12/14 08:31:17;;;;;;;6.57;5.25;;;-0.80;99.90;;;;;;4923646;29;20108;-67
2022/12/14 08:33:44;;;;;;;8.52;4.15;;;-0.80;99.90;;;;;;4906290;29;20035;-70
2022/12/14 08:36:18;;;;;;;12.25;7.78;;;-0.80;99.90;;;;;;4913171;29;20027;-68
2022/12/14 08:38:44;;;;;;;16.75;6.75;;;-0.70;99.90;;;;;;4924856;29;20771;-68
2022/12/14 08:41:13;;;;;;;12.27;5.18;;;-0.80;99.90;;;;;;4912208;29;20396;-68
2022/12/14 08:43:40;;;;;;;8.00;5.28;;;-0.70;99.90;;;;;;4901666;29;20076;-68
2022/12/14 08:46:08;;;;;;;10.02;5.22;;;-0.70;99.90;;;;;;4922121;29;20032;-67
2022/12/14 08:48:34;;;;;;;11.75;5.13;;;-0.70;99.90;;;;;;4923000;29;20043;-67
2022/12/14 08:51:09;;;;;;;14.77;4.85;;;-0.70;99.90;;;;;;4911132;29;20027;-67
2022/12/14 08:53:36;;;;;;;7.05;3.72;;;-0.70;99.90;;;;;;4925806;29;20443;-67
2022/12/14 08:56:11;;;;;;;10.85;6.13;;;-0.70;99.90;;;;;;4911180;29;20087;-67
2022/12/14 08:58:39;;;;;;;5.82;4.70;;;-0.70;99.90;;;;;;4906448;29;20115;-67
2022/12/14 09:01:13;;;;;;;10.07;4.80;;;-0.60;99.90;;;;;;4928757;29;20024;-67
2022/12/14 09:03:40;;;;;;;6.90;4.03;;;-0.70;99.90;;;;;;4908654;29;20040;-68
2022/12/14 09:06:11;;;;;;;5.90;4.00;;;-0.70;99.90;;;;;;4905004;29;20059;-67
2022/12/14 09:08:37;;;;;;;9.43;4.40;;;-0.80;99.90;;;;;;4905798;29;20039;-67
2022/12/14 09:11:04;;;;;;;18.42;5.32;;;-0.70;99.90;;;;;;4911167;29;20079;-67
2022/12/14 09:13:32;;;;;;;7.53;4.50;;;-0.80;99.90;;;;;;4909189;29;20031;-68
2022/12/14 09:16:01;;;;;;;13.27;5.50;;;-0.80;99.90;;;;;;4910808;29;20392;-67
2022/12/14 09:18:27;;;;;;;7.43;4.80;;;-0.80;99.90;;;;;;4926246;29;20028;-67
2022/12/14 09:20:54;;;;;;;10.13;4.57;;;-0.90;99.90;;;;;;4910210;29;20032;-67
2022/12/14 09:23:24;;;;;;;6.25;3.83;;;-0.80;99.90;;;;;;4926110;29;20039;-68
2022/12/14 09:26:06;;;;;;;7.80;4.28;;;-0.70;99.90;;;;;;4914766;29;20111;-68
2022/12/14 09:28:35;;;;;;;13.45;5.95;;;-0.60;99.90;;;;;;4909610;29;20029;-68
2022/12/14 09:31:09;;;;;;;9.63;4.30;;;-0.70;99.90;;;;;;4912901;29;20033;-68
2022/12/14 09:33:35;;;;;;;9.18;4.22;;;-0.70;99.90;;;;;;4910125;29;20036;-68
2022/12/14 09:36:08;;;;;;;8.77;5.97;;;-0.80;99.90;;;;;;4912201;29;20032;-68
2022/12/14 09:38:36;;;;;;;38.63;7.53;;;-0.80;99.90;;;;;;4906357;29;20051;-68
2022/12/14 09:41:22;;;;;;;7.18;4.05;;;-0.70;99.90;;;;;;4906810;29;20024;-68
2022/12/14 09:44:18;;;;;;;9.82;5.20;;;-0.70;99.90;;;;;;4896977;29;20048;-68
2022/12/14 09:47:02;;;;;;;12.32;6.05;;;-0.60;99.90;;;;;;4895185;29;20072;-68
2022/12/14 09:49:40;;;;;;;10.57;5.80;;;-0.60;99.90;;;;;;4908277;29;20551;-69
2022/12/14 09:52:19;;;;;;;9.98;4.28;;;-0.40;99.90;;;;;;4896358;29;20028;-68
2022/12/14 09:54:46;;;;;;;7.65;5.45;;;-0.40;99.90;;;;;;4922188;29;20052;-67
2022/12/14 09:57:39;;;;;;;12.18;4.80;;;-0.30;99.90;;;;;;4911983;29;20039;-67
2022/12/14 10:00:19;;;;;;;11.07;7.13;;;-0.30;99.90;;;;;;4897179;29;20082;-69
2022/12/14 10:02:56;;;;;;;9.05;5.32;;;-0.40;99.90;;;;;;4898806;29;20381;-68
2022/12/14 10:05:53;;;;;;;15.48;4.75;;;-0.30;99.90;;;;;;4923172;29;20491;-70
2022/12/14 10:38:45;;;;;;;9.45;5.43;;;-0.10;99.90;;;;;;4901614;29;20050;-69
2022/12/14 10:41:42;;;;;;;10.82;5.50;;;-0.10;99.90;;;;;;4926434;29;20028;-70
2022/12/14 10:44:39;;;;;;;10.88;5.93;;;0.00;99.90;;;;;;4905640;29;20024;-69
2022/12/14 10:47:33;;;;;;;11.73;5.47;;;-0.10;99.90;;;;;;4897362;29;20079;-69
2022/12/14 10:50:49;;;;;;;13.90;5.72;;;0.00;99.90;;;;;;4913795;29;20545;-69
2022/12/14 10:53:24;;;;;;;13.90;6.07;;;0.10;99.90;;;;;;4919765;29;20031;-69
2022/12/14 10:55:54;;;;;;;15.73;6.78;;;0.10;99.90;;;;;;4908193;29;20574;-69
2022/12/14 10:58:20;;;;;;;11.05;5.15;;;0.20;99.90;;;;;;4908455;29;20036;-71
2022/12/14 11:00:53;;;;;;;12.85;6.85;;;0.20;99.90;;;;;;4924990;29;20152;-68
2022/12/14 11:03:19;;;;;;;10.18;6.47;;;0.30;99.90;;;;;;4925117;29;20046;-69
2022/12/14 11:06:15;;;;;;;19.05;7.60;;;0.40;99.90;;;;;;4907894;29;20114;-69
2022/12/14 11:08:48;;;;;;;23.70;7.65;;;0.50;99.90;;;;;;4906587;29;20131;-67
2022/12/14 11:11:22;;;;;;;10.77;5.47;;;0.40;99.90;;;;;;4927799;29;20111;-68
2022/12/14 11:14:05;;;;;;;12.43;5.10;;;0.40;99.90;;;;;;4905154;29;20485;-69
2022/12/14 11:16:40;;;;;;;13.10;6.47;;;0.40;99.90;;;;;;4930359;29;20040;-72
2022/12/14 11:19:19;;;;;;;15.90;5.82;;;0.50;99.90;;;;;;4908988;29;20044;-69
2022/12/14 11:21:48;;;;;;;13.43;5.88;;;0.50;99.90;;;;;;4897283;29;20036;-69
2022/12/14 11:24:26;;;;;;;14.70;5.57;;;0.60;99.90;;;;;;4925479;29;20047;-69
2022/12/14 11:26:55;;;;;;;12.38;5.82;;;0.70;99.90;;;;;;4933418;29;20036;-70
2022/12/14 11:29:34;;;;;;;13.43;5.78;;;0.70;99.90;;;;;;4924951;29;20155;-69
2022/12/14 11:32:00;;;;;;;10.73;6.63;;;0.70;99.90;;;;;;4901136;29;20036;-69
2022/12/14 11:34:41;;;;;;;10.88;6.75;;;0.80;99.90;;;;;;4925203;29;20038;-69
2022/12/14 11:37:21;;;;;;;13.27;5.95;;;0.70;99.90;;;;;;4901008;29;20039;-70
2022/12/14 11:39:56;;;;;;;9.85;5.45;;;0.70;99.90;;;;;;4925680;29;20400;-69
2022/12/14 11:42:23;;;;;;;13.77;6.03;;;0.70;99.90;;;;;;4911526;29;20036;-70
2022/12/14 11:44:50;;;;;;;10.63;6.45;;;0.70;99.90;;;;;;4911135;29;20138;-70
2022/12/14 11:47:25;;;;;;;8.70;4.95;;;0.70;99.90;;;;;;4912407;29;20028;-69
2022/12/14 11:49:56;;;;;;;11.40;6.47;;;0.60;99.90;;;;;;4926492;29;20110;-68
2022/12/14 11:52:25;;;;;;;;;;;0.60;99.90;;;;;;4912041;29;20046;-69
2022/12/14 11:54:54;;;;;;;12.05;5.60;;;0.60;99.90;;;;;;4927825;29;19918;-69
2022/12/14 11:57:33;;;;;;;11.18;5.78;;;0.60;99.90;;;;;;4928787;29;20040;-69
2022/12/14 12:00:05;;;;;;;9.82;5.70;;;0.60;99.90;;;;;;4912698;29;20036;-68
2022/12/14 12:02:45;;;;;;;10.07;5.60;;;0.60;99.90;;;;;;4888551;29;20039;-69
2022/12/14 12:05:18;;;;;;;10.23;5.15;;;0.70;99.90;;;;;;4912066;29;20031;-68
2022/12/14 12:07:52;;;;;;;15.45;6.00;;;0.50;99.90;;;;;;4927650;29;20032;-69
2022/12/14 12:10:28;;;;;;;13.18;6.20;;;0.60;99.90;;;;;;4927763;29;20040;-69
2022/12/14 12:13:00;;;;;;;13.07;6.35;;;0.60;99.90;;;;;;4911341;29;20024;-68
2022/12/14 12:15:39;;;;;;;8.65;5.65;;;0.60;99.90;;;;;;4927618;29;20036;-69
2022/12/14 12:18:29;;;;;;;14.70;6.65;;;0.60;99.90;;;;;;4910926;29;20027;-69
2022/12/14 12:21:07;;;;;;;14.67;6.03;;;0.60;99.90;;;;;;4920377;29;20117;-69
2022/12/14 12:23:56;;;;;;;11.05;6.03;;;0.70;99.90;;;;;;4926407;29;20391;-68
2022/12/14 12:26:32;;;;;;;7.57;4.13;;;0.60;99.90;;;;;;4931404;29;20035;-69
2022/12/14 12:29:55;;;;;;;12.73;6.25;;;0.70;99.90;;;;;;4906642;29;20068;-69
2022/12/14 12:32:46;;;;;;;12.52;6.53;;;0.60;99.90;;;;;;4908404;29;20041;-69
2022/12/14 12:35:25;;;;;;;9.82;5.15;;;0.60;99.90;;;;;;4923960;29;20024;-68
2022/12/14 12:37:57;;;;;;;17.10;7.05;;;0.80;99.90;;;;;;4901601;29;20032;-69
2022/12/14 12:40:58;;;;;;;15.60;6.93;;;0.70;99.90;;;;;;4910583;29;20038;-69
2022/12/14 12:43:52;;;;;;;10.65;6.43;;;0.70;99.90;;;;;;4924005;29;20492;-69
2022/12/14 12:46:29;;;;;;;12.95;5.03;;;0.80;99.90;;;;;;4925060;29;20364;-69
2022/12/14 12:49:10;;;;;;;11.70;5.10;;;0.90;99.90;;;;;;4906835;29;20523;-68
2022/12/14 12:51:58;;;;;;;14.88;4.97;;;0.80;99.90;;;;;;4931706;29;20043;-69
2022/12/14 12:54:33;;;;;;;14.50;6.13;;;0.80;99.90;;;;;;4903588;29;20531;-68
2022/12/14 12:57:01;;;;;;;13.20;7.82;;;0.80;99.90;;;;;;4915139;29;20040;-69
2022/12/14 12:59:35;;;;;;;9.52;5.75;;;0.80;99.90;;;;;;4919063;29;20411;-68
2022/12/14 13:02:33;;;;;;;13.70;7.20;;;0.80;99.90;;;;;;4930066;29;20039;-68
2022/12/14 13:05:17;;;;;;;14.07;8.55;;;0.70;99.90;;;;;;4917015;29;20083;-69
2022/12/14 13:07:51;;;;;;;8.43;5.60;;;0.60;99.90;;;;;;4900467;29;20500;-68
2022/12/14 13:10:30;;;;;;;15.15;6.60;;;0.50;99.90;;;;;;4910434;29;20042;-68
2022/12/14 13:13:08;;;;;;;17.48;8.90;;;0.50;99.90;;;;;;4910437;29;20040;-68
2022/12/14 13:15:45;;;;;;;15.88;8.75;;;0.50;99.90;;;;;;4942355;23;20079;-68
2022/12/14 13:18:32;;;;;;;10.70;6.00;;;0.60;99.90;;;;;;4950975;29;20066;-68
2022/12/14 13:21:10;;;;;;;10.35;5.90;;;0.60;99.90;;;;;;4933185;28;20046;-68
2022/12/14 13:23:35;;;;;;;11.88;5.97;;;0.60;99.90;;;;;;4950479;29;20063;-68
2022/12/14 13:26:26;;;;;;;12.35;6.70;;;0.60;99.90;;;;;;4954635;28;20055;-68
2022/12/14 13:29:00;;;;;;;13.43;6.72;;;0.50;99.90;;;;;;4961270;28;20114;-68
2022/12/14 13:31:41;;;;;;;11.48;4.82;;;0.40;99.90;;;;;;4954618;28;20035;-68
2022/12/14 13:34:59;;;;;;;11.15;4.03;;;0.40;99.90;;;;;;4961277;28;20056;-68
2022/12/14 13:38:16;;;;;;;9.10;4.72;;;0.30;99.90;;;;;;4916045;28;20035;-68
2022/12/14 13:41:06;;;;;;;10.55;7.30;;;0.20;99.90;;;;;;4968629;28;20038;-68
2022/12/14 13:44:18;;;;;;;10.10;5.72;;;0.20;99.90;;;;;;4965081;28;20410;-68
2022/12/14 13:46:44;;;;;;;11.13;6.47;;;0.10;99.90;;;;;;4952959;28;20102;-68
2022/12/14 13:49:20;;;;;;;8.55;4.75;;;0.20;99.90;;;;;;4958710;28;20479;-68
2022/12/14 13:51:49;;;;;;;15.23;5.97;;;0.10;99.90;;;;;;4970831;28;20031;-68
2022/12/14 13:54:34;;;;;;;19.83;5.72;;;0.10;99.90;;;;;;4962212;28;20030;-69
2022/12/14 13:57:12;;;;;;;13.70;5.35;;;0.10;99.90;;;;;;4958586;28;20058;-68
2022/12/14 13:59:50;;;;;;;13.75;7.47;;;0.10;99.90;;;;;;4960617;28;20093;-68
2022/12/14 14:02:30;;;;;;;5.00;4.07;;;0.10;99.90;;;;;;4969835;28;20038;-70
2022/12/14 14:05:20;;;;;;;8.27;5.20;;;0.00;99.90;;;;;;4951320;29;20119;-68
2022/12/14 14:07:59;;;;;;;9.30;5.15;;;0.10;99.90;;;;;;4953674;28;20064;-68
2022/12/14 14:10:34;;;;;;;15.02;5.85;;;0.00;99.90;;;;;;4966916;28;20027;-68
2022/12/14 14:13:47;;;;;;;14.00;6.35;;;-0.10;99.90;;;;;;4959084;28;20035;-68